Bethlehem, North Carolina
Current Conditions -  °F | °C
As of 8:53 AM on Friday 24 Oct 2014 (Local Time) from KHKY Reporting Station
Clear Clear  
Wind Chill: 45°   Ceiling: Unl
Heat Index: 48°   Visibility: 10mi
Dew Point: 41°   Wind: 7mph
Humidity: 77%   Direction: 280°W
Pressure: 30.08"   Gusts: NA
Location:  35.7628°N, 81.3219°W
Report Text: KHKY 241253Z 28006KT 10SM CLR 09/05 A3008 RMK AO2 SLP173 T00890050
Loading
Personal Weather Stations






























Interactive Weather Map
Tropical Storm Tracking
New forecast layout! Learn more

10-Day Weather Forecast

Advertisements
Track Severe Weather on mobile